Time;durP1;ratioP1;P1;durP2;ratioP2;P2;SDS_P1;SDS_P2;PMS_P1;PMS_P2;Temp;Humidity;BMP_temperature;BMP_pressure;BME280_temperature;BME280_humidity;BME280_pressure;Samples;Min_cycle;Max_cycle;Signal;HPM_P1;HPM_P2
2021/09/07 00:00:12;;;;;;;17.95;11.15;;;8.40;74.20;;;;;;4995673;28;20034;-70
2021/09/07 00:02:38;;;;;;;17.98;10.98;;;8.40;74.30;;;;;;4995807;28;20378;-70
2021/09/07 00:05:05;;;;;;;17.48;11.02;;;8.40;74.50;;;;;;4995953;28;20081;-70
2021/09/07 00:07:31;;;;;;;15.60;10.82;;;8.40;74.60;;;;;;4995479;28;20019;-69
2021/09/07 00:09:56;;;;;;;18.35;11.00;;;8.40;74.80;;;;;;4995544;28;20362;-69
2021/09/07 00:12:22;;;;;;;17.42;10.85;;;8.40;74.90;;;;;;4995924;28;20026;-70
2021/09/07 00:14:48;;;;;;;20.20;11.95;;;8.30;75.00;;;;;;4995831;28;20037;-70
2021/09/07 00:17:13;;;;;;;20.08;12.45;;;8.30;75.70;;;;;;4995144;28;20128;-69
2021/09/07 00:19:39;;;;;;;17.55;11.68;;;8.30;75.20;;;;;;4995233;28;20054;-69
2021/09/07 00:22:06;;;;;;;18.95;11.75;;;8.30;75.40;;;;;;4995058;28;20378;-69
2021/09/07 00:24:31;;;;;;;18.33;11.80;;;8.20;75.40;;;;;;4995173;28;20093;-69
2021/09/07 00:26:58;;;;;;;19.33;11.60;;;8.20;75.60;;;;;;4995176;28;20030;-70
2021/09/07 00:29:27;;;;;;;22.90;11.43;;;8.20;75.70;;;;;;4995302;28;20029;-70
2021/09/07 00:31:53;;;;;;;17.15;11.60;;;8.20;75.90;;;;;;4995166;28;20054;-70
2021/09/07 00:34:19;;;;;;;18.55;12.07;;;8.10;76.00;;;;;;4995173;28;20065;-70
2021/09/07 00:36:44;;;;;;;21.60;14.18;;;8.10;76.20;;;;;;4977606;28;20036;-70
2021/09/07 00:39:11;;;;;;;23.23;14.23;;;8.10;76.30;;;;;;4977435;28;20041;-69
2021/09/07 00:41:41;;;;;;;22.27;14.15;;;8.10;76.40;;;;;;4995157;28;20033;-69
2021/09/07 00:44:16;;;;;;;22.23;13.98;;;8.00;76.50;;;;;;4995071;28;20069;-69
2021/09/07 00:46:50;;;;;;;25.23;14.23;;;8.00;76.70;;;;;;4994977;28;20037;-70
2021/09/07 00:49:16;;;;;;;19.73;13.95;;;8.00;76.80;;;;;;4994752;28;20018;-70
2021/09/07 00:51:42;;;;;;;19.00;13.70;;;7.90;76.90;;;;;;4994670;28;20038;-70
2021/09/07 00:54:09;;;;;;;22.45;13.23;;;7.90;77.10;;;;;;4994620;28;20110;-70
2021/09/07 00:56:35;;;;;;;22.00;13.60;;;7.80;77.20;;;;;;4994645;28;20081;-70
2021/09/07 00:59:02;;;;;;;23.77;14.38;;;7.80;77.30;;;;;;4994563;28;20026;-69
2021/09/07 01:01:28;;;;;;;26.10;15.65;;;7.70;77.40;;;;;;4994377;28;20091;-69
2021/09/07 01:03:54;;;;;;;25.70;15.23;;;7.70;77.60;;;;;;4994475;28;20069;-70
2021/09/07 01:06:19;;;;;;;27.25;17.02;;;7.70;77.70;;;;;;4994468;28;20080;-70
2021/09/07 01:08:45;;;;;;;28.85;17.17;;;7.70;77.90;;;;;;4994539;28;20030;-70
2021/09/07 01:11:13;;;;;;;30.40;18.15;;;7.70;78.10;;;;;;4994304;28;20050;-69
2021/09/07 01:13:39;;;;;;;33.08;20.90;;;7.60;78.10;;;;;;4994108;28;20073;-69
2021/09/07 01:16:05;;;;;;;33.63;20.20;;;7.60;78.20;;;;;;4976913;28;20027;-70
2021/09/07 01:18:31;;;;;;;34.80;21.67;;;7.60;78.40;;;;;;4994363;28;20025;-70
2021/09/07 01:20:56;;;;;;;35.95;20.45;;;7.50;78.50;;;;;;4993299;28;20044;-70
2021/09/07 01:23:22;;;;;;;33.47;20.67;;;7.50;78.70;;;;;;4994099;28;20027;-69
2021/09/07 01:25:48;;;;;;;34.08;20.40;;;7.50;78.90;;;;;;4976817;28;20028;-69
2021/09/07 01:28:15;;;;;;;35.88;21.25;;;7.50;79.10;;;;;;4993931;28;20041;-69
2021/09/07 01:30:42;;;;;;;32.17;19.58;;;7.50;79.20;;;;;;4993829;28;20014;-69
2021/09/07 01:33:10;;;;;;;32.63;20.00;;;7.50;79.40;;;;;;4993807;28;20389;-69
2021/09/07 01:35:39;;;;;;;30.63;19.45;;;7.50;79.50;;;;;;4994112;28;20501;-69
2021/09/07 01:38:05;;;;;;;33.97;19.98;;;7.50;79.50;;;;;;4993785;28;20481;-69
2021/09/07 01:40:30;;;;;;;30.65;18.77;;;7.60;79.50;;;;;;4993631;28;20088;-69
2021/09/07 01:42:56;;;;;;;33.35;19.70;;;7.60;79.40;;;;;;4993213;28;20497;-69
2021/09/07 01:45:22;;;;;;;33.22;19.90;;;7.60;79.30;;;;;;4993844;28;20112;-69
2021/09/07 01:47:50;;;;;;;27.65;18.48;;;7.70;79.30;;;;;;4993708;28;20042;-68
2021/09/07 01:50:17;;;;;;;31.13;17.73;;;7.70;79.10;;;;;;4993729;28;20019;-69
2021/09/07 01:52:43;;;;;;;30.85;18.98;;;7.80;79.00;;;;;;4993792;28;20041;-69
2021/09/07 01:55:09;;;;;;;31.25;18.65;;;7.90;78.90;;;;;;4993717;28;20062;-69
2021/09/07 01:57:35;;;;;;;30.60;18.58;;;7.90;78.70;;;;;;4993722;28;20053;-69
2021/09/07 02:00:01;;;;;;;32.10;18.95;;;8.00;78.50;;;;;;4993768;28;20050;-70
2021/09/07 02:02:27;;;;;;;31.95;20.17;;;8.10;78.30;;;;;;4993089;28;20132;-70
2021/09/07 02:04:52;;;;;;;30.45;19.65;;;8.10;78.20;;;;;;4993332;28;20489;-70
2021/09/07 02:07:18;;;;;;;32.42;19.90;;;8.10;78.00;;;;;;4993269;28;20049;-70
2021/09/07 02:09:44;;;;;;;30.17;19.30;;;8.20;78.00;;;;;;4993229;28;20028;-70
2021/09/07 02:12:10;;;;;;;33.55;20.67;;;8.20;77.90;;;;;;4993180;28;20030;-69
2021/09/07 02:14:35;;;;;;;35.50;21.40;;;8.20;77.70;;;;;;4993060;28;20034;-69
2021/09/07 02:17:01;;;;;;;36.40;20.85;;;8.20;77.60;;;;;;4993170;28;20026;-69
2021/09/07 02:19:27;;;;;;;32.00;19.63;;;8.30;77.60;;;;;;4993171;28;20114;-69
2021/09/07 02:21:53;;;;;;;31.60;19.00;;;8.30;77.50;;;;;;4992996;28;20110;-69
2021/09/07 02:24:19;;;;;;;30.83;19.00;;;8.30;77.40;;;;;;4992997;28;20027;-69
2021/09/07 02:26:44;;;;;;;33.85;19.38;;;8.30;77.30;;;;;;4992690;28;20580;-69
2021/09/07 02:29:10;;;;;;;35.08;19.98;;;8.30;77.10;;;;;;4992364;28;20030;-69
2021/09/07 02:31:36;;;;;;;31.67;19.20;;;8.40;77.00;;;;;;4992283;28;20072;-70
2021/09/07 02:34:02;;;;;;;31.77;18.23;;;8.40;76.80;;;;;;4992562;28;20033;-69
2021/09/07 02:36:28;;;;;;;29.38;17.48;;;8.40;76.60;;;;;;4992796;28;20031;-69
2021/09/07 02:38:54;;;;;;;36.75;20.02;;;8.40;76.40;;;;;;4975220;28;20786;-69
2021/09/07 02:41:21;;;;;;;29.52;17.33;;;8.40;76.10;;;;;;4992718;28;20034;-69
2021/09/07 02:43:46;;;;;;;29.02;17.23;;;8.40;75.90;;;;;;4992666;28;20069;-69
2021/09/07 02:46:12;;;;;;;30.75;16.77;;;8.40;75.80;;;;;;4992779;28;20063;-70
2021/09/07 02:48:38;;;;;;;24.83;17.10;;;8.50;75.70;;;;;;4992768;28;20076;-71
2021/09/07 02:51:04;;;;;;;30.70;18.40;;;8.50;75.60;;;;;;4992885;28;20026;-70
2021/09/07 02:53:30;;;;;;;27.75;16.98;;;8.40;75.40;;;;;;4992675;28;20306;-70
2021/09/07 02:55:55;;;;;;;32.53;17.52;;;8.40;75.40;;;;;;4992877;28;20421;-70
2021/09/07 02:58:21;;;;;;;30.77;18.17;;;8.40;75.50;;;;;;4975171;28;20026;-70
2021/09/07 03:00:47;;;;;;;31.33;18.58;;;8.30;75.50;;;;;;4992474;28;20026;-71
2021/09/07 03:03:12;;;;;;;28.27;18.30;;;8.30;75.60;;;;;;4992396;28;20072;-71
2021/09/07 03:05:38;;;;;;;30.33;19.05;;;8.20;75.60;;;;;;4992276;28;20385;-70
2021/09/07 03:08:04;;;;;;;31.52;19.05;;;8.10;75.70;;;;;;4992285;28;20030;-69
2021/09/07 03:10:30;;;;;;;37.10;19.80;;;8.00;76.00;;;;;;4992168;28;20465;-69
2021/09/07 03:12:56;;;;;;;30.63;19.13;;;7.90;76.10;;;;;;4992349;28;20053;-69
2021/09/07 03:15:23;;;;;;;35.65;19.35;;;7.90;76.30;;;;;;4992771;28;20023;-69
2021/09/07 03:17:49;;;;;;;30.70;19.23;;;7.80;76.50;;;;;;4991935;28;20481;-70
2021/09/07 03:20:15;;;;;;;30.50;18.17;;;7.70;76.70;;;;;;4992459;28;20034;-70
2021/09/07 03:22:40;;;;;;;33.17;18.10;;;7.70;77.00;;;;;;4992455;28;20128;-70
2021/09/07 03:25:07;;;;;;;33.47;18.13;;;7.70;77.30;;;;;;4992680;28;20048;-70
2021/09/07 03:27:32;;;;;;;29.10;19.08;;;7.70;77.40;;;;;;4992610;28;20029;-70
2021/09/07 03:29:58;;;;;;;29.33;17.42;;;7.70;77.30;;;;;;4992217;28;20022;-70
2021/09/07 03:32:24;;;;;;;30.58;17.02;;;7.70;77.30;;;;;;4992177;28;20106;-70
2021/09/07 03:34:49;;;;;;;25.50;16.70;;;7.60;77.30;;;;;;4992145;28;20037;-70
2021/09/07 03:37:15;;;;;;;23.83;15.23;;;7.60;77.40;;;;;;4991977;28;20034;-69
2021/09/07 03:39:41;;;;;;;33.78;16.88;;;7.50;77.40;;;;;;4992509;28;20026;-69
2021/09/07 03:42:07;;;;;;;29.40;16.63;;;7.60;77.60;;;;;;4992117;28;20358;-69
2021/09/07 03:44:33;;;;;;;22.98;15.45;;;7.50;77.60;;;;;;4994638;28;20046;-69
2021/09/07 03:46:59;;;;;;;23.42;15.15;;;7.50;77.60;;;;;;4995183;28;20362;-70
2021/09/07 03:49:24;;;;;;;25.52;15.38;;;7.50;77.60;;;;;;4995655;28;20022;-70
2021/09/07 03:51:51;;;;;;;26.80;16.48;;;7.50;77.60;;;;;;4995259;28;20054;-69
2021/09/07 03:54:17;;;;;;;28.77;17.55;;;7.50;77.60;;;;;;4995740;28;20032;-69
2021/09/07 03:56:42;;;;;;;24.80;15.32;;;7.50;77.60;;;;;;4995375;28;20417;-69
2021/09/07 03:59:08;;;;;;;24.00;14.68;;;7.60;77.60;;;;;;4995347;28;20026;-69
2021/09/07 04:01:34;;;;;;;23.75;15.55;;;7.60;78.00;;;;;;4995397;28;20468;-69
2021/09/07 04:04:00;;;;;;;26.25;15.13;;;8.40;79.60;;;;;;4995371;28;20029;-69
2021/09/07 04:06:25;;;;;;;24.63;14.45;;;9.70;78.30;;;;;;4977756;28;20031;-70
2021/09/07 04:08:51;;;;;;;27.80;14.18;;;11.20;74.80;;;;;;4995464;28;20085;-70
2021/09/07 04:11:17;;;;;;;26.10;14.63;;;12.60;70.90;;;;;;4995327;28;20018;-70
2021/09/07 04:13:42;;;;;;;24.70;13.75;;;14.00;67.00;;;;;;4995559;28;20033;-70
2021/09/07 04:16:08;;;;;;;25.52;15.05;;;15.30;63.30;;;;;;4995164;28;20389;-70
2021/09/07 04:18:34;;;;;;;27.73;14.40;;;16.50;60.30;;;;;;4995218;28;20106;-70
2021/09/07 04:21:00;;;;;;;25.75;14.15;;;17.50;58.10;;;;;;4995015;28;20030;-70
2021/09/07 04:23:25;;;;;;;31.73;14.52;;;18.50;54.90;;;;;;4995017;28;20023;-70
2021/09/07 04:25:51;;;;;;;21.73;12.48;;;19.30;52.70;;;;;;4995146;28;20034;-70
2021/09/07 04:28:17;;;;;;;22.45;13.07;;;20.20;50.80;;;;;;4994933;28;20058;-69
2021/09/07 04:30:42;;;;;;;29.05;14.48;;;21.00;49.10;;;;;;4994732;28;20465;-70
2021/09/07 04:33:08;;;;;;;25.33;13.40;;;21.80;47.50;;;;;;4994938;28;20030;-70
2021/09/07 04:35:34;;;;;;;23.60;12.88;;;22.50;46.00;;;;;;4995025;28;20385;-70
2021/09/07 04:37:59;;;;;;;21.88;12.77;;;23.10;44.80;;;;;;4994672;28;20030;-70
2021/09/07 04:40:25;;;;;;;23.90;13.93;;;23.70;43.60;;;;;;4994614;28;20026;-70
2021/09/07 04:42:51;;;;;;;24.02;13.52;;;24.10;42.60;;;;;;4994083;28;20464;-70
2021/09/07 04:45:17;;;;;;;29.02;13.60;;;24.60;41.60;;;;;;4994288;28;20481;-71
2021/09/07 04:47:42;;;;;;;24.73;12.90;;;25.20;40.90;;;;;;4994548;28;20029;-70
2021/09/07 04:50:08;;;;;;;22.20;13.15;;;25.60;40.10;;;;;;4994188;28;20097;-70
2021/09/07 04:52:34;;;;;;;24.88;13.05;;;25.90;39.40;;;;;;4994127;28;20176;-70
2021/09/07 04:55:00;;;;;;;28.63;13.13;;;26.30;39.00;;;;;;4993804;28;20030;-71
2021/09/07 04:57:26;;;;;;;20.38;12.05;;;26.60;38.40;;;;;;4993774;28;20053;-70
2021/09/07 04:59:51;;;;;;;29.08;12.68;;;26.90;38.00;;;;;;4993966;28;20022;-71
2021/09/07 05:02:17;;;;;;;25.45;12.15;;;27.20;37.60;;;;;;4993959;28;20098;-71
2021/09/07 05:04:43;;;;;;;21.58;11.40;;;27.40;37.30;;;;;;5012274;28;20111;-70
2021/09/07 05:07:08;;;;;;;19.20;11.15;;;27.60;37.10;;;;;;5012998;28;20084;-70
2021/09/07 05:09:34;;;;;;;19.00;10.63;;;27.80;36.80;;;;;;5013095;28;20029;-71
2021/09/07 05:12:00;;;;;;;17.80;10.23;;;28.00;36.30;;;;;;5012793;28;20034;-70
2021/09/07 05:14:25;;;;;;;16.08;10.65;;;28.30;36.10;;;;;;5013021;28;20041;-71
2021/09/07 05:16:51;;;;;;;14.38;9.93;;;28.60;35.90;;;;;;5011589;28;20064;-70
2021/09/07 05:19:17;;;;;;;14.10;9.95;;;29.00;35.50;;;;;;5012885;28;20052;-71
2021/09/07 05:21:43;;;;;;;21.13;10.63;;;29.30;35.20;;;;;;5012020;28;20330;-71
2021/09/07 05:24:09;;;;;;;18.08;9.82;;;29.70;34.90;;;;;;5013543;28;20026;-71
2021/09/07 05:26:35;;;;;;;15.98;9.85;;;30.00;34.60;;;;;;5012579;28;20425;-71
2021/09/07 05:29:00;;;;;;;19.05;9.23;;;30.30;35.00;;;;;;5012651;28;20022;-70
2021/09/07 05:31:26;;;;;;;14.18;9.10;;;30.40;34.10;;;;;;5013354;28;20132;-71
2021/09/07 05:33:52;;;;;;;18.38;10.05;;;30.70;33.90;;;;;;5011377;28;20057;-72
2021/09/07 05:36:17;;;;;;;20.55;10.40;;;30.90;33.70;;;;;;5012781;28;20056;-72
2021/09/07 05:38:43;;;;;;;13.80;8.75;;;31.10;33.60;;;;;;5012601;28;20101;-71
2021/09/07 05:41:09;;;;;;;21.13;8.55;;;31.50;33.40;;;;;;5012229;28;20018;-71
2021/09/07 05:43:34;;;;;;;16.67;8.20;;;31.80;32.80;;;;;;5012026;28;20060;-71
2021/09/07 05:46:00;;;;;;;23.60;9.40;;;32.00;32.50;;;;;;5012191;28;20033;-72
2021/09/07 05:48:26;;;;;;;14.05;8.88;;;32.30;32.40;;;;;;5011891;28;20076;-71
2021/09/07 05:50:52;;;;;;;23.08;9.75;;;32.50;32.00;;;;;;5012255;28;20104;-71
2021/09/07 05:53:18;;;;;;;12.82;7.60;;;32.60;31.90;;;;;;5010911;28;20480;-72
2021/09/07 05:55:43;;;;;;;14.15;8.27;;;32.80;31.70;;;;;;5012151;28;20053;-71
2021/09/07 05:58:09;;;;;;;13.27;8.07;;;33.10;31.60;;;;;;5012081;28;20022;-71
2021/09/07 06:00:35;;;;;;;10.40;7.13;;;33.40;31.20;;;;;;5011247;28;20026;-71
2021/09/07 06:03:07;;;;;;;16.35;8.90;;;33.70;30.80;;;;;;5012741;28;20030;-72
2021/09/07 06:05:33;;;;;;;16.85;7.13;;;33.90;30.70;;;;;;5010437;28;20033;-72
2021/09/07 06:07:59;;;;;;;11.70;7.15;;;34.10;30.40;;;;;;5011799;28;20048;-71
2021/09/07 06:10:25;;;;;;;12.32;6.82;;;34.20;30.20;;;;;;5012166;28;20062;-72
2021/09/07 06:12:50;;;;;;;13.32;6.75;;;34.20;30.20;;;;;;5012228;28;20030;-71
2021/09/07 06:15:16;;;;;;;13.73;6.70;;;34.40;30.20;;;;;;5011886;28;20025;-72
2021/09/07 06:17:42;;;;;;;13.85;6.88;;;34.40;30.00;;;;;;5011679;28;20079;-70
2021/09/07 06:20:08;;;;;;;10.93;6.80;;;34.40;29.90;;;;;;5010233;28;20485;-70
2021/09/07 06:22:33;;;;;;;9.02;5.95;;;34.20;29.70;;;;;;4994485;28;20036;-71
2021/09/07 06:24:59;;;;;;;13.10;6.47;;;34.20;29.80;;;;;;5011863;28;20034;-70
2021/09/07 06:27:25;;;;;;;9.98;6.00;;;34.30;29.80;;;;;;5011917;28;20071;-71
2021/09/07 06:29:51;;;;;;;13.18;6.38;;;34.40;29.50;;;;;;5012713;28;20030;-71
2021/09/07 06:32:17;;;;;;;15.23;6.72;;;34.50;29.60;;;;;;5012336;28;20033;-71
2021/09/07 06:34:43;;;;;;;9.95;6.53;;;34.60;29.60;;;;;;5009177;28;20034;-74
2021/09/07 06:37:09;;;;;;;9.77;7.07;;;34.50;29.40;;;;;;5010285;28;20028;-71
2021/09/07 06:39:37;;;;;;;12.80;7.03;;;34.50;29.60;;;;;;4991967;28;20113;-70
2021/09/07 06:42:06;;;;;;;12.88;7.20;;;34.50;29.60;;;;;;4991917;28;20030;-72
2021/09/07 06:44:32;;;;;;;10.57;6.75;;;34.50;29.60;;;;;;4991729;28;20044;-72
2021/09/07 06:47:14;;;;;;;10.30;6.72;;;34.50;29.60;;;;;;4993628;28;20030;-72
2021/09/07 06:49:39;;;;;;;8.57;5.80;;;34.60;29.60;;;;;;4983126;28;20381;-71
2021/09/07 06:52:05;;;;;;;10.88;6.35;;;34.60;29.50;;;;;;5000442;28;20033;-71
2021/09/07 06:54:31;;;;;;;17.02;7.03;;;34.60;29.50;;;;;;5011174;28;20084;-70
2021/09/07 06:56:57;;;;;;;10.10;7.00;;;34.50;29.30;;;;;;5002287;28;20068;-70
2021/09/07 06:59:22;;;;;;;13.68;8.05;;;34.40;29.40;;;;;;4991619;28;20049;-71
2021/09/07 07:01:48;;;;;;;13.95;7.25;;;34.30;29.40;;;;;;4991939;28;20109;-70
2021/09/07 07:04:14;;;;;;;9.63;6.15;;;34.30;29.40;;;;;;5004911;28;20149;-72
2021/09/07 07:06:40;;;;;;;14.60;5.82;;;34.20;29.40;;;;;;5009150;28;20030;-71
2021/09/07 07:09:05;;;;;;;7.20;5.40;;;34.20;29.50;;;;;;5001065;28;20032;-70
2021/09/07 07:11:31;;;;;;;10.00;5.70;;;34.30;29.40;;;;;;5010919;28;20084;-70
2021/09/07 07:13:57;;;;;;;12.65;7.32;;;34.30;29.40;;;;;;5011009;28;20045;-70
2021/09/07 07:16:23;;;;;;;9.57;5.65;;;34.30;29.30;;;;;;5011337;28;20058;-70
2021/09/07 07:18:48;;;;;;;11.38;5.60;;;34.20;29.30;;;;;;5013131;28;20030;-71
2021/09/07 07:21:14;;;;;;;6.65;4.53;;;34.00;29.30;;;;;;5015011;28;20026;-70
2021/09/07 07:23:40;;;;;;;7.93;4.70;;;33.70;29.20;;;;;;5014771;28;20049;-71
2021/09/07 07:26:06;;;;;;;10.02;5.03;;;33.40;29.30;;;;;;5014453;28;20025;-71
2021/09/07 07:28:31;;;;;;;8.10;5.20;;;33.10;29.40;;;;;;5014351;28;20362;-72
2021/09/07 07:30:57;;;;;;;13.55;6.80;;;33.00;29.60;;;;;;5014064;28;20298;-71
2021/09/07 07:33:23;;;;;;;7.70;5.45;;;32.80;29.80;;;;;;5014201;28;20091;-71
2021/09/07 07:35:49;;;;;;;5.75;3.88;;;32.60;29.80;;;;;;5014106;28;20404;-71
2021/09/07 07:38:14;;;;;;;5.13;3.70;;;32.40;29.80;;;;;;5014208;28;20037;-72
2021/09/07 07:40:40;;;;;;;5.35;3.30;;;32.30;29.70;;;;;;5014058;28;20038;-70
2021/09/07 07:43:06;;;;;;;8.75;5.45;;;32.50;29.30;;;;;;5013725;28;20077;-71
2021/09/07 07:45:32;;;;;;;9.20;4.25;;;32.50;29.20;;;;;;5013979;28;20080;-71
2021/09/07 07:47:57;;;;;;;6.40;3.13;;;32.50;29.30;;;;;;5014366;28;20022;-72
2021/09/07 07:50:23;;;;;;;4.97;4.20;;;32.50;29.30;;;;;;5014563;28;20026;-72
2021/09/07 07:52:49;;;;;;;7.80;5.15;;;32.30;29.30;;;;;;4997902;28;20433;-70
2021/09/07 07:55:15;;;;;;;5.43;3.50;;;32.20;29.30;;;;;;5014092;28;20388;-70
2021/09/07 07:57:40;;;;;;;4.93;3.50;;;32.00;29.20;;;;;;5013158;28;20418;-71
2021/09/07 08:00:07;;;;;;;5.95;4.00;;;31.70;29.10;;;;;;5013501;28;20030;-70
2021/09/07 08:02:32;;;;;;;4.50;2.75;;;31.50;29.20;;;;;;5014001;28;20030;-70
2021/09/07 08:04:58;;;;;;;6.22;3.90;;;31.40;29.30;;;;;;5013717;28;20030;-70
2021/09/07 08:07:24;;;;;;;6.05;3.42;;;31.20;29.30;;;;;;5013634;28;20371;-71
2021/09/07 08:09:49;;;;;;;6.65;3.13;;;31.00;29.40;;;;;;5013612;28;20026;-71
2021/09/07 08:12:17;;;;;;;3.47;2.80;;;30.80;29.30;;;;;;5013523;28;20120;-72
2021/09/07 08:14:45;;;;;;;5.15;2.80;;;30.60;29.20;;;;;;5007230;28;20033;-71
2021/09/07 08:17:12;;;;;;;5.28;2.65;;;30.30;29.50;;;;;;5012826;28;20061;-72
2021/09/07 08:19:37;;;;;;;5.10;2.80;;;30.00;29.40;;;;;;5013315;28;20049;-72
2021/09/07 08:22:03;;;;;;;3.05;2.50;;;29.80;29.40;;;;;;5013254;28;20408;-72
2021/09/07 08:24:29;;;;;;;4.10;2.50;;;29.60;29.80;;;;;;5007172;28;20026;-73
2021/09/07 08:26:55;;;;;;;3.00;2.60;;;29.50;29.80;;;;;;4975716;28;20369;-72
2021/09/07 08:29:20;;;;;;;9.30;3.95;;;29.20;29.80;;;;;;4992861;28;20465;-73
2021/09/07 08:31:46;;;;;;;3.25;2.70;;;29.00;29.70;;;;;;5003664;28;20026;-72
2021/09/07 08:34:12;;;;;;;5.28;2.45;;;28.90;29.70;;;;;;5003120;28;20362;-72
2021/09/07 08:36:38;;;;;;;6.18;2.50;;;28.70;29.90;;;;;;5012857;28;20183;-74
2021/09/07 08:39:05;;;;;;;6.13;3.90;;;28.60;29.90;;;;;;5013090;28;20124;-74
2021/09/07 08:41:30;;;;;;;3.65;2.65;;;28.40;30.00;;;;;;5012438;28;20037;-73
2021/09/07 08:43:56;;;;;;;4.70;2.60;;;28.20;30.00;;;;;;5012847;28;20046;-74
2021/09/07 08:46:22;;;;;;;3.33;2.58;;;28.00;30.10;;;;;;5012879;28;20036;-68
2021/09/07 08:48:48;;;;;;;5.57;2.85;;;27.90;30.10;;;;;;5012479;28;20515;-68
2021/09/07 08:51:17;;;;;;;5.20;2.70;;;27.70;30.30;;;;;;5012680;28;20485;-68
2021/09/07 08:53:44;;;;;;;4.03;3.63;;;27.60;30.30;;;;;;5012514;28;20029;-67
2021/09/07 08:56:10;;;;;;;4.50;3.00;;;27.60;30.40;;;;;;5006275;28;20034;-68
2021/09/07 08:58:37;;;;;;;5.25;2.90;;;27.50;30.60;;;;;;4999226;28;20097;-68
2021/09/07 09:01:17;;;;;;;5.72;3.03;;;27.50;30.60;;;;;;5005528;28;20469;-68
2021/09/07 09:03:44;;;;;;;6.30;2.78;;;27.40;30.90;;;;;;5011965;28;20060;-66
2021/09/07 09:06:11;;;;;;;6.68;2.67;;;27.30;31.20;;;;;;5010398;28;20057;-67
2021/09/07 09:08:37;;;;;;;12.05;3.30;;;27.30;31.10;;;;;;5012090;28;20022;-68
2021/09/07 09:11:06;;;;;;;4.63;2.17;;;27.20;31.00;;;;;;5009580;28;20064;-68
2021/09/07 09:13:46;;;;;;;5.00;4.07;;;27.30;30.90;;;;;;5001050;28;20050;-68
2021/09/07 09:16:14;;;;;;;4.22;2.83;;;27.20;30.90;;;;;;4992103;28;20030;-68
2021/09/07 09:18:46;;;;;;;6.68;3.20;;;27.20;31.10;;;;;;4992157;28;20155;-68
2021/09/07 09:21:31;;;;;;;5.53;3.28;;;27.20;31.30;;;;;;5012051;28;20034;-67
2021/09/07 09:24:16;;;;;;;4.90;2.70;;;27.20;31.30;;;;;;5000341;28;20033;-67
2021/09/07 09:26:52;;;;;;;9.30;3.30;;;27.10;31.20;;;;;;5011706;28;20049;-67
2021/09/07 09:29:31;;;;;;;4.60;2.85;;;27.10;31.30;;;;;;5011748;28;20032;-68
2021/09/07 09:32:08;;;;;;;6.07;2.95;;;27.00;31.20;;;;;;5011808;28;20026;-67
2021/09/07 09:34:37;;;;;;;7.88;3.28;;;26.70;31.30;;;;;;5011495;28;20030;-67
2021/09/07 09:37:15;;;;;;;8.15;5.00;;;26.60;31.20;;;;;;5011378;28;20037;-67
2021/09/07 09:39:50;;;;;;;7.88;3.67;;;26.30;31.40;;;;;;5011441;28;20026;-68
2021/09/07 09:42:26;;;;;;;5.57;3.05;;;26.20;31.80;;;;;;5010914;28;20113;-68
2021/09/07 09:45:18;;;;;;;5.38;2.75;;;26.10;32.00;;;;;;5011308;28;20108;-68
2021/09/07 09:47:45;;;;;;;;;;;26.00;31.60;;;;;;4991434;28;20488;-68
2021/09/07 09:50:13;;;;;;;5.63;2.92;;;25.90;31.60;;;;;;5004162;28;19936;-68
2021/09/07 09:52:43;;;;;;;4.28;2.30;;;25.90;32.00;;;;;;5001570;28;20083;-68
2021/09/07 09:55:11;;;;;;;4.22;2.30;;;25.80;31.80;;;;;;4995851;28;20042;-68
2021/09/07 09:57:38;;;;;;;4.32;2.60;;;25.80;31.90;;;;;;5001289;28;20033;-68
2021/09/07 10:00:07;;;;;;;3.28;2.58;;;25.80;32.00;;;;;;5010802;28;20025;-67
2021/09/07 10:02:33;;;;;;;6.45;2.65;;;25.70;32.70;;;;;;5011276;28;20128;-68
2021/09/07 10:04:59;;;;;;;7.05;3.50;;;25.70;32.00;;;;;;4993472;28;20528;-72
2021/09/07 10:07:28;;;;;;;5.65;2.58;;;25.70;32.30;;;;;;5010907;28;20057;-68
2021/09/07 10:09:58;;;;;;;5.75;2.72;;;25.60;32.40;;;;;;5010446;28;20105;-68
2021/09/07 10:12:36;;;;;;;4.47;2.83;;;25.60;32.50;;;;;;4993336;28;20757;-67
2021/09/07 10:17:51;;;;;;;5.30;2.70;;;25.70;32.60;;;;;;5002802;28;20030;-67
2021/09/07 10:20:52;;;;;;;5.05;2.97;;;25.70;32.60;;;;;;4977148;28;20540;-68
2021/09/07 10:24:15;;;;;;;4.78;3.05;;;25.50;32.50;;;;;;5007778;28;20140;-68
2021/09/07 10:26:45;;;;;;;5.38;2.97;;;25.40;32.50;;;;;;5003288;28;20041;-73
2021/09/07 10:29:12;;;;;;;2.92;2.53;;;25.40;32.60;;;;;;4992304;28;20026;-73
2021/09/07 10:31:42;;;;;;;3.85;2.40;;;25.40;32.60;;;;;;5002115;28;20026;-67
2021/09/07 10:34:08;;;;;;;6.03;2.40;;;25.20;32.10;;;;;;4993784;28;20030;-68
2021/09/07 10:36:38;;;;;;;4.55;2.75;;;24.80;32.20;;;;;;5009567;28;20091;-67
2021/09/07 10:39:07;;;;;;;4.05;2.60;;;24.40;33.00;;;;;;5010950;28;20757;-69
2021/09/07 10:41:33;;;;;;;3.90;2.72;;;24.30;33.40;;;;;;5011535;28;20136;-68
2021/09/07 10:44:08;;;;;;;8.82;3.28;;;24.40;33.90;;;;;;5010978;28;20128;-69
2021/09/07 10:46:49;;;;;;;7.32;2.97;;;24.40;33.90;;;;;;5010779;28;20076;-68
2021/09/07 10:49:37;;;;;;;4.65;3.13;;;24.50;33.40;;;;;;5010797;28;20022;-68
2021/09/07 10:52:15;;;;;;;14.07;7.20;;;24.20;33.20;;;;;;5010919;28;20029;-69
2021/09/07 10:54:45;;;;;;;21.23;7.50;;;23.70;34.60;;;;;;5010131;28;20480;-68
2021/09/07 10:57:45;;;;;;;11.88;7.53;;;23.30;35.90;;;;;;5010381;28;20034;-69
2021/09/07 11:00:28;;;;;;;14.35;7.55;;;23.00;37.00;;;;;;5010693;28;20038;-69
2021/09/07 11:03:06;;;;;;;16.45;7.85;;;22.60;37.70;;;;;;5004653;28;20030;-69
2021/09/07 11:05:37;;;;;;;18.02;7.95;;;22.40;38.20;;;;;;5010572;28;20036;-69
2021/09/07 11:08:07;;;;;;;14.77;8.80;;;22.20;38.60;;;;;;5011017;28;20101;-69
2021/09/07 11:10:52;;;;;;;22.45;9.35;;;22.00;38.90;;;;;;4992650;28;20034;-69
2021/09/07 11:13:17;;;;;;;22.92;9.68;;;21.80;39.30;;;;;;5004550;28;20056;-68
2021/09/07 11:15:44;;;;;;;18.98;9.57;;;21.80;39.40;;;;;;4989198;28;20349;-69
2021/09/07 11:18:16;;;;;;;19.25;10.07;;;21.80;39.30;;;;;;5006996;28;20029;-71
2021/09/07 11:20:46;;;;;;;24.80;11.47;;;21.80;39.20;;;;;;5002031;28;20161;-69
2021/09/07 11:23:25;;;;;;;18.95;9.30;;;21.70;39.20;;;;;;4992122;28;20311;-69
2021/09/07 11:26:16;;;;;;;19.90;8.93;;;21.50;39.80;;;;;;5009668;28;20036;-69
2021/09/07 11:28:49;;;;;;;14.93;8.65;;;21.50;39.60;;;;;;5010742;28;20022;-69
2021/09/07 11:31:15;;;;;;;19.65;8.57;;;21.60;39.50;;;;;;5010395;28;20018;-70
2021/09/07 11:33:43;;;;;;;22.88;9.52;;;21.60;39.20;;;;;;5010061;28;20030;-68
2021/09/07 11:36:11;;;;;;;15.15;7.47;;;21.60;39.30;;;;;;5009183;28;20193;-68
2021/09/07 11:38:43;;;;;;;15.38;7.70;;;21.70;39.30;;;;;;5010275;28;20021;-68
2021/09/07 11:41:12;;;;;;;15.43;7.82;;;21.70;39.40;;;;;;5010948;28;20033;-69
2021/09/07 11:43:39;;;;;;;17.02;8.10;;;21.80;39.50;;;;;;5010076;28;20049;-68
2021/09/07 11:46:36;;;;;;;28.50;9.10;;;21.90;39.20;;;;;;5010434;28;20040;-69
2021/09/07 11:49:05;;;;;;;19.48;9.32;;;21.80;39.60;;;;;;5010256;28;20411;-68
2021/09/07 11:51:34;;;;;;;22.63;9.43;;;21.80;40.40;;;;;;5010050;28;20030;-70
2021/09/07 11:54:03;;;;;;;21.52;10.48;;;21.60;39.50;;;;;;5010179;28;20022;-70
2021/09/07 11:56:30;;;;;;;22.20;9.93;;;21.20;40.10;;;;;;5010486;28;20029;-69
2021/09/07 11:59:17;;;;;;;19.20;8.25;;;21.10;40.40;;;;;;5007352;28;20088;-69
2021/09/07 12:01:45;;;;;;;21.50;9.27;;;20.90;40.80;;;;;;4999297;28;20031;-69
2021/09/07 12:04:14;;;;;;;15.85;8.10;;;20.90;40.80;;;;;;4991373;28;20023;-68
2021/09/07 12:06:42;;;;;;;19.67;7.90;;;20.90;40.80;;;;;;4998579;28;20469;-69
2021/09/07 12:09:20;;;;;;;17.77;8.45;;;20.90;40.70;;;;;;5011116;28;20576;-69
2021/09/07 12:11:53;;;;;;;14.70;7.50;;;20.80;40.70;;;;;;4996809;28;20388;-71
2021/09/07 12:14:24;;;;;;;10.93;7.03;;;20.80;40.80;;;;;;5003260;28;20026;-69
2021/09/07 12:17:02;;;;;;;16.65;7.40;;;20.70;40.60;;;;;;5011842;28;20058;-69
2021/09/07 12:19:35;;;;;;;18.88;7.68;;;20.60;40.80;;;;;;5013918;28;20036;-69
2021/09/07 12:22:12;;;;;;;12.30;7.30;;;20.50;41.30;;;;;;4996404;28;20396;-69
2021/09/07 12:24:40;;;;;;;13.35;7.10;;;20.50;41.60;;;;;;5014038;28;20026;-68
2021/09/07 12:27:24;;;;;;;15.52;7.70;;;20.50;41.60;;;;;;5013661;28;20132;-68
2021/09/07 12:30:16;;;;;;;13.55;7.45;;;20.60;41.70;;;;;;5013570;28;20026;-68
2021/09/07 12:33:16;;;;;;;15.13;7.32;;;20.70;41.00;;;;;;4996211;28;20034;-69
2021/09/07 12:35:50;;;;;;;13.40;6.50;;;20.70;41.10;;;;;;5012629;28;20476;-68
2021/09/07 12:38:19;;;;;;;19.27;13.77;;;20.70;41.00;;;;;;5004898;28;20384;-69
2021/09/07 12:40:48;;;;;;;14.63;7.18;;;20.70;41.20;;;;;;5013212;28;20030;-70
2021/09/07 12:43:19;;;;;;;9.50;5.90;;;20.70;41.20;;;;;;5013247;28;20049;-69
2021/09/07 12:45:46;;;;;;;12.60;5.78;;;20.50;41.20;;;;;;5013443;28;20097;-69